Time;durP1;ratioP1;P1;durP2;ratioP2;P2;SDS_P1;SDS_P2;PMS_P1;PMS_P2;Temp;Humidity;BMP_temperature;BMP_pressure;BME280_temperature;BME280_humidity;BME280_pressure;Samples;Min_cycle;Max_cycle;Signal;HPM_P1;HPM_P2
2022/08/15 00:00:58;;;;;;;;;10.50;10.25;;;;;;;;5190176;28;8829;-78
2022/08/15 00:03:32;;;;;;;;;11.75;11.25;;;;;;;;5171146;28;8797;-77
2022/08/15 00:06:06;;;;;;;;;8.75;8.75;;;;;;;;5178883;28;8879;-78
2022/08/15 00:08:39;;;;;;;;;25.20;23.80;;;;;;;;5229660;28;8797;-74
2022/08/15 00:11:13;;;;;;;;;47.00;37.20;;;;;;;;5178901;28;8813;-75
2022/08/15 00:13:47;;;;;;;;;36.80;34.20;;;;;;;;5229303;28;8821;-75
2022/08/15 00:16:18;;;;;;;;;22.20;20.80;;;;;;;;5211505;28;8786;-76
2022/08/15 00:18:50;;;;;;;;;15.80;14.60;;;;;;;;5189459;28;8873;-75
2022/08/15 00:21:21;;;;;;;;;12.80;12.60;;;;;;;;5191234;28;8805;-75
2022/08/15 00:23:55;;;;;;;;;62.00;50.20;;;;;;;;5191038;28;8796;-76
2022/08/15 00:26:26;;;;;;;;;66.40;51.20;;;;;;;;5191808;28;9308;-75
2022/08/15 00:28:57;;;;;;;;;46.40;37.40;;;;;;;;5208382;28;9484;-75
2022/08/15 00:31:31;;;;;;;;;22.80;20.60;;;;;;;;5208809;28;8773;-76
2022/08/15 00:34:03;;;;;;;;;21.60;20.40;;;;;;;;5190851;28;8908;-77
2022/08/15 00:36:34;;;;;;;;;31.40;30.20;;;;;;;;5190656;28;8773;-77
2022/08/15 00:39:05;;;;;;;;;22.80;21.20;;;;;;;;5174316;28;8817;-78
2022/08/15 00:41:39;;;;;;;;;24.00;22.00;;;;;;;;5190397;28;8787;-78
2022/08/15 00:44:14;;;;;;;;;28.20;26.40;;;;;;;;5190354;28;8799;-78
2022/08/15 00:46:48;;;;;;;;;45.60;36.20;;;;;;;;5175057;28;8797;-79
2022/08/15 00:49:20;;;;;;;;;34.80;30.60;;;;;;;;5223269;28;8793;-78
2022/08/15 00:51:59;;;;;;;;;39.80;33.20;;;;;;;;5157916;28;8804;-77
2022/08/15 00:54:42;;;;;;;;;52.00;43.60;;;;;;;;5174037;28;8785;-77
2022/08/15 00:57:20;;;;;;;;;48.40;38.80;;;;;;;;5158381;28;8792;-78
2022/08/15 00:59:53;;;;;;;;;37.00;32.40;;;;;;;;5192294;28;8832;-75
2022/08/15 01:02:27;;;;;;;;;26.40;24.40;;;;;;;;5157585;28;8781;-76
2022/08/15 01:05:17;;;;;;;;;27.60;25.20;;;;;;;;5207885;28;8943;-75
2022/08/15 01:07:48;;;;;;;;;17.50;16.25;;;;;;;;5189987;28;8795;-76
2022/08/15 01:10:19;;;;;;;;;57.40;46.00;;;;;;;;5228176;28;9537;-76
2022/08/15 01:12:51;;;;;;;;;51.20;43.20;;;;;;;;5194041;28;8767;-77
2022/08/15 01:15:44;;;;;;;;;30.40;23.20;;;;;;;;5227566;28;8803;-80
2022/08/15 01:18:15;;;;;;;;;27.20;27.00;;;;;;;;5210278;28;8826;-81
2022/08/15 01:20:48;;;;;;;;;28.40;25.80;;;;;;;;5193286;28;9434;-79
2022/08/15 01:23:49;;;;;;;;;20.20;19.40;;;;;;;;5213572;28;8783;-79
2022/08/15 01:26:22;;;;;;;;;29.20;26.80;;;;;;;;5173317;28;8785;-73
2022/08/15 01:28:54;;;;;;;;;31.40;28.40;;;;;;;;5189402;28;9496;-73
2022/08/15 01:31:25;;;;;;;;;62.40;47.80;;;;;;;;5189414;28;9531;-74
2022/08/15 01:34:15;;;;;;;;;60.60;49.60;;;;;;;;5207136;28;8789;-75
2022/08/15 01:36:48;;;;;;;;;42.60;37.40;;;;;;;;5189597;28;8781;-74
2022/08/15 01:39:19;;;;;;;;;29.80;28.00;;;;;;;;5172926;28;8824;-75
2022/08/15 01:41:57;;;;;;;;;27.00;25.40;;;;;;;;5207153;28;8919;-76
2022/08/15 01:44:50;;;;;;;;;29.40;28.60;;;;;;;;5156987;28;8877;-75
2022/08/15 01:47:29;;;;;;;;;27.00;26.40;;;;;;;;5201237;28;8796;-76
2022/08/15 01:50:07;;;;;;;;;15.50;15.50;;;;;;;;5193791;28;8801;-75
2022/08/15 01:52:58;;;;;;;;;15.25;14.00;;;;;;;;5178319;28;8796;-75
2022/08/15 01:55:52;;;;;;;;;12.00;12.00;;;;;;;;5186065;28;8785;-75
2022/08/15 01:58:24;;;;;;;;;12.00;10.50;;;;;;;;5173096;28;8812;-75
2022/08/15 02:01:08;;;;;;;;;15.75;13.50;;;;;;;;5194826;28;8829;-76
2022/08/15 02:03:41;;;;;;;;;11.00;11.00;;;;;;;;5176908;28;8933;-75
2022/08/15 02:09:54;;;;;;;;;9.00;8.25;;;;;;;;5227586;28;8791;-79
2022/08/15 02:12:31;;;;;;;;;12.50;12.00;;;;;;;;5193220;28;8803;-80
2022/08/15 02:15:06;;;;;;;;;12.00;10.00;;;;;;;;5176100;28;9521;-80
2022/08/15 02:17:38;;;;;;;;;9.50;8.75;;;;;;;;5188980;28;8789;-79
2022/08/15 02:20:11;;;;;;;;;11.25;10.75;;;;;;;;5156144;28;8831;-77
2022/08/15 02:22:42;;;;;;;;;17.00;15.50;;;;;;;;5171887;28;8826;-78
2022/08/15 02:25:13;;;;;;;;;10.00;10.00;;;;;;;;5172298;28;8785;-77
2022/08/15 02:27:45;;;;;;;;;5.50;5.00;;;;;;;;5171284;28;8773;-77
2022/08/15 02:30:16;;;;;;;;;9.50;8.75;;;;;;;;5172216;28;8785;-80
2022/08/15 02:32:49;;;;;;;;;15.50;14.50;;;;;;;;5207649;28;8805;-81
2022/08/15 02:35:39;;;;;;;;;18.00;15.50;;;;;;;;5190950;28;8825;-75
2022/08/15 02:38:13;;;;;;;;;84.00;70.00;;;;;;;;5209052;28;8834;-76
2022/08/15 02:40:49;;;;;;;;;22.60;20.60;;;;;;;;5208310;28;8823;-76
2022/08/15 02:43:22;;;;;;;;;11.00;10.75;;;;;;;;5163528;28;8931;-78
2022/08/15 02:45:59;;;;;;;;;7.75;7.25;;;;;;;;5178930;28;8800;-77
2022/08/15 02:48:35;;;;;;;;;10.00;10.00;;;;;;;;5171998;28;9517;-76
2022/08/15 02:51:10;;;;;;;;;15.75;15.75;;;;;;;;5177370;28;8877;-77
2022/08/15 02:53:43;;;;;;;;;17.80;16.60;;;;;;;;5192122;28;8833;-78
2022/08/15 02:56:16;;;;;;;;;24.60;23.00;;;;;;;;5175967;28;8811;-77
2022/08/15 02:58:48;;;;;;;;;22.00;21.40;;;;;;;;5180924;28;8793;-77
2022/08/15 03:01:20;;;;;;;;;7.50;6.50;;;;;;;;5209273;28;8777;-76
2022/08/15 03:03:55;;;;;;;;;17.00;13.25;;;;;;;;5226983;28;8889;-76
2022/08/15 03:06:30;;;;;;;;;13.00;12.25;;;;;;;;5172058;28;8777;-78
2022/08/15 03:09:07;;;;;;;;;12.50;12.50;;;;;;;;5172044;28;8801;-78
2022/08/15 03:11:43;;;;;;;;;12.00;10.00;;;;;;;;5156100;28;8827;-79
2022/08/15 03:14:16;;;;;;;;;11.25;10.00;;;;;;;;5187692;28;8778;-79
2022/08/15 03:16:49;;;;;;;;;4.00;1.50;;;;;;;;5186668;28;8799;-78
2022/08/15 03:19:25;;;;;;;;;10.00;8.25;;;;;;;;5191446;28;8831;-78
2022/08/15 03:21:57;;;;;;;;;11.25;9.50;;;;;;;;5192261;28;8789;-79
2022/08/15 03:24:47;;;;;;;;;19.75;16.75;;;;;;;;5201572;28;8795;-77
2022/08/15 03:27:19;;;;;;;;;19.80;19.20;;;;;;;;5157810;28;8789;-72
2022/08/15 03:29:50;;;;;;;;;25.40;25.40;;;;;;;;5202407;28;8793;-70
2022/08/15 03:32:22;;;;;;;;;25.40;24.80;;;;;;;;5187071;28;8789;-70
2022/08/15 03:34:53;;;;;;;;;16.75;16.75;;;;;;;;5203842;28;8786;-73
2022/08/15 03:37:24;;;;;;;;;16.80;16.80;;;;;;;;5191588;28;8798;-74
2022/08/15 03:39:56;;;;;;;;;12.75;12.25;;;;;;;;5207189;28;8837;-74
2022/08/15 03:42:29;;;;;;;;;11.00;11.00;;;;;;;;5190099;28;8799;-75
2022/08/15 03:45:19;;;;;;;;;33.20;32.20;;;;;;;;5190556;28;8839;-74
2022/08/15 03:47:50;;;;;;;;;21.40;21.00;;;;;;;;5189969;28;8845;-73
2022/08/15 03:50:22;;;;;;;;;17.00;17.00;;;;;;;;5205896;28;8810;-75
2022/08/15 03:52:59;;;;;;;;;13.00;13.00;;;;;;;;5189663;28;8837;-75
2022/08/15 03:55:32;;;;;;;;;9.00;9.00;;;;;;;;5173455;28;8791;-74
2022/08/15 03:58:04;;;;;;;;;29.40;27.40;;;;;;;;5189937;28;8782;-74
2022/08/15 04:00:44;;;;;;;;;12.40;12.40;;;;;;;;5200747;28;8840;-75
2022/08/15 04:03:18;;;;;;;;;13.25;13.25;;;;;;;;5171673;28;9579;-74
2022/08/15 04:05:51;;;;;;;;;19.50;19.50;;;;;;;;5184417;28;8882;-75
2022/08/15 04:08:25;;;;;;;;;12.25;12.25;;;;;;;;5184663;28;8797;-74
2022/08/15 04:11:16;;;;;;;;;17.00;15.00;;;;;;;;5198372;28;8838;-74
2022/08/15 04:13:48;;;;;;;;;19.50;16.75;;;;;;;;5188596;28;8790;-73
2022/08/15 04:16:21;;;;;;;;;10.25;10.25;;;;;;;;5172531;28;8894;-75
2022/08/15 04:18:53;;;;;;;;;10.00;8.75;;;;;;;;5188275;28;8878;-75
2022/08/15 04:21:24;;;;;;;;;14.33;13.00;;;;;;;;5177167;28;8839;-75
2022/08/15 04:23:55;;;;;;;;;13.50;11.75;;;;;;;;5202179;28;9570;-76
2022/08/15 04:26:26;;;;;;;;;12.00;11.67;;;;;;;;5168069;28;8793;-75
2022/08/15 04:29:16;;;;;;;;;9.50;8.50;;;;;;;;5184937;28;9401;-75
2022/08/15 04:31:47;;;;;;;;;9.00;9.00;;;;;;;;5169027;28;8879;-75
2022/08/15 04:34:18;;;;;;;;;10.00;9.25;;;;;;;;5203084;28;8806;-75
2022/08/15 04:36:52;;;;;;;;;10.25;8.75;;;;;;;;5184714;28;9575;-75
2022/08/15 04:39:24;;;;;;;;;9.00;8.00;;;;;;;;5185149;28;8818;-75
2022/08/15 04:42:05;;;;;;;;;8.50;7.75;;;;;;;;5202076;28;8811;-75
2022/08/15 04:44:36;;;;;;;;;7.75;7.75;;;;;;;;5205200;28;8841;-76
2022/08/15 04:47:09;;;;;;;;;11.75;11.00;;;;;;;;5223231;28;8791;-75
2022/08/15 04:49:41;;;;;;;;;11.00;10.00;;;;;;;;5189485;28;8815;-76
2022/08/15 04:52:15;;;;;;;;;9.50;7.75;;;;;;;;5191780;28;9574;-75
2022/08/15 04:54:49;;;;;;;;;12.25;11.50;;;;;;;;5191861;28;8984;-75
2022/08/15 04:57:25;;;;;;;;;9.75;9.50;;;;;;;;5188474;28;8925;-74
2022/08/15 04:59:56;;;;;;;;;10.75;10.75;;;;;;;;5206218;28;8794;-76
2022/08/15 05:02:27;;;;;;;;;10.50;10.50;;;;;;;;5192159;28;8929;-74
2022/08/15 05:04:58;;;;;;;;;9.00;9.00;;;;;;;;5208500;28;9007;-75
2022/08/15 05:07:48;;;;;;;;;15.00;14.25;;;;;;;;5208782;28;8799;-75
2022/08/15 05:10:19;;;;;;;;;13.00;13.00;;;;;;;;5208796;28;8825;-75
2022/08/15 05:12:51;;;;;;;;;13.25;10.75;;;;;;;;5208768;28;8787;-75
2022/08/15 05:15:22;;;;;;;;;44.40;38.40;;;;;;;;5220018;28;8985;-78
2022/08/15 05:17:54;;;;;;;;;41.40;36.40;;;;;;;;5186127;28;8842;-74
2022/08/15 05:20:26;;;;;;;;;24.50;21.50;;;;;;;;5209872;28;8810;-74
2022/08/15 05:22:59;;;;;;;;;17.75;14.50;;;;;;;;5193900;28;8779;-74
2022/08/15 05:25:33;;;;;;;;;9.75;9.75;;;;;;;;5177474;28;8795;-74
2022/08/15 05:28:05;;;;;;;;;31.00;30.25;;;;;;;;5227939;28;8779;-74
2022/08/15 05:30:37;;;;;;;;;28.00;28.00;;;;;;;;5193758;28;8783;-73
2022/08/15 05:33:14;;;;;;;;;11.50;11.00;;;;;;;;5203305;28;8851;-74
2022/08/15 05:36:06;;;;;;;;;16.75;16.75;;;;;;;;5201161;28;8852;-73
2022/08/15 05:38:58;;;;;;;;;31.00;27.80;;;;;;;;5212768;28;8805;-74
2022/08/15 05:41:34;;;;;;;;;13.50;13.00;;;;;;;;5193355;28;8799;-74
2022/08/15 05:44:06;;;;;;;;;10.50;8.00;;;;;;;;5193402;28;8768;-75
2022/08/15 05:46:41;;;;;;;;;7.50;7.00;;;;;;;;5210400;28;9482;-73
2022/08/15 05:49:25;;;;;;;;;7.25;7.25;;;;;;;;5227685;28;8867;-73
2022/08/15 05:52:27;;;;;;;;;5.25;5.25;;;;;;;;5174441;28;8778;-77
2022/08/15 05:55:02;;;;;;;;;4.25;4.25;;;;;;;;5218548;28;8815;-73
2022/08/15 05:58:06;;;;;;;;;6.00;6.00;;;;;;;;5209942;28;8796;-75
2022/08/15 06:00:44;;;;;;;;;6.00;6.00;;;;;;;;5199250;28;8789;-75
2022/08/15 06:03:21;;;;;;;;;5.00;5.00;;;;;;;;5194351;28;8765;-73
2022/08/15 06:06:00;;;;;;;;;5.25;5.25;;;;;;;;5174783;28;8858;-73
2022/08/15 06:08:35;;;;;;;;;6.25;6.25;;;;;;;;5172920;28;9492;-73
2022/08/15 06:11:21;;;;;;;;;6.00;6.00;;;;;;;;5164335;28;8773;-73
2022/08/15 06:13:56;;;;;;;;;3.75;3.75;;;;;;;;5172497;28;8851;-73
2022/08/15 06:16:48;;;;;;;;;5.50;5.50;;;;;;;;5191628;28;8789;-74
2022/08/15 06:19:26;;;;;;;;;5.00;5.00;;;;;;;;5165753;28;8853;-74
2022/08/15 06:22:20;;;;;;;;;3.50;3.50;;;;;;;;5209190;28;8783;-74
2022/08/15 06:25:10;;;;;;;;;6.50;6.50;;;;;;;;5209316;28;9525;-74
2022/08/15 06:27:45;;;;;;;;;7.00;7.00;;;;;;;;5216648;28;8779;-74
2022/08/15 06:30:24;;;;;;;;;5.00;5.00;;;;;;;;5218117;28;8791;-75
2022/08/15 06:33:14;;;;;;;;;5.50;5.50;;;;;;;;5193942;28;8798;-73
2022/08/15 06:36:20;;;;;;;;;6.00;6.00;;;;;;;;5202546;28;8799;-73
2022/08/15 06:39:14;;;;;;;;;7.00;7.00;;;;;;;;5193140;28;8805;-73
2022/08/15 06:42:04;;;;;;;;;10.50;9.75;;;;;;;;5200709;28;8917;-74
2022/08/15 06:44:51;;;;;;;;;10.25;9.00;;;;;;;;5192319;28;8790;-74
2022/08/15 06:47:23;;;;;;;;;6.00;6.00;;;;;;;;5192188;28;9537;-73
2022/08/15 06:49:59;;;;;;;;;7.25;7.00;;;;;;;;5208271;28;8794;-74
2022/08/15 06:52:59;;;;;;;;;13.00;13.00;;;;;;;;5194788;28;8775;-73
2022/08/15 06:55:39;;;;;;;;;4.00;4.00;;;;;;;;5172841;28;8855;-75
2022/08/15 06:58:14;;;;;;;;;5.75;5.75;;;;;;;;5188093;28;9725;-75
2022/08/15 07:01:21;;;;;;;;;6.25;6.25;;;;;;;;5191034;28;8813;-74
2022/08/15 07:04:06;;;;;;;;;5.75;5.75;;;;;;;;5171863;28;8942;-74
2022/08/15 07:06:45;;;;;;;;;7.25;6.75;;;;;;;;5172071;28;8872;-75
2022/08/15 07:09:55;;;;;;;;;9.75;9.75;;;;;;;;5190704;28;9520;-73
2022/08/15 07:12:47;;;;;;;;;6.25;6.25;;;;;;;;5187746;28;9500;-73
2022/08/15 07:15:36;;;;;;;;;5.25;5.25;;;;;;;;5176358;28;8818;-74
2022/08/15 07:18:14;;;;;;;;;5.25;5.25;;;;;;;;5175831;28;8835;-74
2022/08/15 07:20:46;;;;;;;;;8.25;8.25;;;;;;;;5192001;28;9540;-74
2022/08/15 07:23:22;;;;;;;;;4.25;4.25;;;;;;;;5191618;28;8791;-72
2022/08/15 07:26:00;;;;;;;;;12.50;12.00;;;;;;;;5224464;28;8803;-75
2022/08/15 07:28:33;;;;;;;;;7.25;7.25;;;;;;;;5225665;28;8771;-73
2022/08/15 07:31:17;;;;;;;;;7.00;7.00;;;;;;;;5207758;28;8798;-74
2022/08/15 07:33:53;;;;;;;;;8.25;8.25;;;;;;;;5207821;28;8775;-74
2022/08/15 07:37:00;;;;;;;;;5.25;5.25;;;;;;;;5193759;28;8829;-74
2022/08/15 07:39:37;;;;;;;;;6.00;6.00;;;;;;;;5187399;28;8825;-74
2022/08/15 07:42:18;;;;;;;;;6.25;6.25;;;;;;;;5187276;28;8785;-74
2022/08/15 07:44:55;;;;;;;;;6.00;6.00;;;;;;;;5204457;28;8848;-75
2022/08/15 07:47:30;;;;;;;;;4.50;4.50;;;;;;;;5207607;28;8909;-72
2022/08/15 07:50:31;;;;;;;;;0.25;0.25;;;;;;;;5225494;28;8783;-74
2022/08/15 07:53:10;;;;;;;;;5.00;5.00;;;;;;;;5219935;28;8776;-75
2022/08/15 07:55:41;;;;;;;;;6.25;6.25;;;;;;;;5207673;28;8984;-73
2022/08/15 07:58:20;;;;;;;;;5.25;5.25;;;;;;;;5197372;28;8801;-73
2022/08/15 08:01:23;;;;;;;;;3.00;3.00;;;;;;;;5204606;28;8886;-72
2022/08/15 08:04:05;;;;;;;;;3.75;3.75;;;;;;;;5187070;28;8867;-72
2022/08/15 08:06:40;;;;;;;;;5.00;5.00;;;;;;;;5200765;28;8810;-74
2022/08/15 08:09:30;;;;;;;;;55.40;45.60;;;;;;;;5198392;28;8805;-74
2022/08/15 08:12:08;;;;;;;;;3.50;3.50;;;;;;;;5171430;28;8769;-74
2022/08/15 08:14:55;;;;;;;;;5.25;5.25;;;;;;;;5173695;28;9613;-70
2022/08/15 08:17:26;;;;;;;;;7.00;7.00;;;;;;;;5204751;28;8810;-73
2022/08/15 08:20:10;;;;;;;;;7.00;7.00;;;;;;;;5200192;28;8929;-73
2022/08/15 08:22:50;;;;;;;;;8.25;8.25;;;;;;;;5176870;28;11534;-72
2022/08/15 08:25:25;;;;;;;;;5.75;5.75;;;;;;;;5188516;28;8800;-72
2022/08/15 08:27:56;;;;;;;;;40.25;35.00;;;;;;;;5190179;28;9565;-74
2022/08/15 08:30:55;;;;;;;;;10.00;9.25;;;;;;;;5208417;28;9646;-73
2022/08/15 08:33:38;;;;;;;;;5.75;5.75;;;;;;;;5190509;28;8778;-74
2022/08/15 08:36:10;;;;;;;;;20.00;20.00;;;;;;;;5188121;28;8921;-76
2022/08/15 08:38:47;;;;;;;;;21.75;21.00;;;;;;;;5217671;28;9429;-75
2022/08/15 08:41:33;;;;;;;;;6.25;6.25;;;;;;;;5228186;28;8842;-77
2022/08/15 08:44:07;;;;;;;;;4.00;4.00;;;;;;;;5202262;28;8809;-76
2022/08/15 08:46:56;;;;;;;;;2.75;2.75;;;;;;;;5212928;28;8792;-74
2022/08/15 08:49:40;;;;;;;;;3.25;3.25;;;;;;;;5200928;28;8789;-74
2022/08/15 08:52:17;;;;;;;;;5.00;5.00;;;;;;;;5198854;28;8781;-74
2022/08/15 08:54:51;;;;;;;;;5.75;5.75;;;;;;;;5197889;28;8884;-75
2022/08/15 08:57:24;;;;;;;;;4.00;4.00;;;;;;;;5190584;28;8900;-74
2022/08/15 09:00:00;;;;;;;;;7.25;7.25;;;;;;;;5190651;28;8805;-75
2022/08/15 09:02:43;;;;;;;;;6.00;6.00;;;;;;;;5190732;28;8814;-74
2022/08/15 09:05:38;;;;;;;;;6.25;6.25;;;;;;;;5207492;28;8854;-74
2022/08/15 09:08:16;;;;;;;;;7.00;7.00;;;;;;;;5227613;28;8808;-75
2022/08/15 09:10:49;;;;;;;;;6.25;6.25;;;;;;;;5227314;28;8900;-76
2022/08/15 09:13:31;;;;;;;;;6.00;6.00;;;;;;;;5221181;28;8799;-74
2022/08/15 09:16:08;;;;;;;;;4.50;4.50;;;;;;;;5193572;28;8787;-74
2022/08/15 09:19:07;;;;;;;;;2.00;2.00;;;;;;;;5212846;28;9044;-74
2022/08/15 09:21:38;;;;;;;;;3.75;3.75;;;;;;;;5210277;28;8909;-74
2022/08/15 09:24:10;;;;;;;;;5.50;5.50;;;;;;;;5193606;28;8867;-75
2022/08/15 09:26:52;;;;;;;;;2.25;2.25;;;;;;;;5193466;28;8786;-75
2022/08/15 09:29:26;;;;;;;;;3.00;3.00;;;;;;;;5227432;28;8823;-75
2022/08/15 09:32:15;;;;;;;;;4.50;4.50;;;;;;;;5193655;28;8790;-74
2022/08/15 09:35:05;;;;;;;;;5.25;5.25;;;;;;;;5195574;28;8797;-72
2022/08/15 09:37:42;;;;;;;;;7.50;6.75;;;;;;;;5188880;28;8899;-72
2022/08/15 09:40:13;;;;;;;;;4.75;4.75;;;;;;;;5173103;28;8898;-74
2022/08/15 09:43:05;;;;;;;;;22.00;21.25;;;;;;;;5206404;28;8884;-72
2022/08/15 09:46:03;;;;;;;;;7.50;7.50;;;;;;;;5192346;28;8781;-74
2022/08/15 09:48:50;;;;;;;;;3.25;3.25;;;;;;;;5206951;28;8808;-74
2022/08/15 09:51:40;;;;;;;;;6.50;6.50;;;;;;;;5189322;28;8903;-74
2022/08/15 09:54:11;;;;;;;;;6.25;6.25;;;;;;;;5206252;28;8803;-73
2022/08/15 09:56:43;;;;;;;;;7.25;7.25;;;;;;;;5218549;28;8779;-74
2022/08/15 09:59:40;;;;;;;;;7.75;7.75;;;;;;;;5193194;28;8850;-73
2022/08/15 10:02:19;;;;;;;;;9.00;9.00;;;;;;;;5224415;28;8849;-73
2022/08/15 10:04:50;;;;;;;;;6.75;6.75;;;;;;;;5209712;28;8794;-73
2022/08/15 10:07:40;;;;;;;;;27.25;24.75;;;;;;;;5209403;28;9473;-75
2022/08/15 10:10:13;;;;;;;;;5.00;5.00;;;;;;;;5192485;28;8888;-75
2022/08/15 10:13:03;;;;;;;;;2.75;2.50;;;;;;;;5209270;28;8779;-74
2022/08/15 10:15:47;;;;;;;;;4.75;4.50;;;;;;;;5192980;28;8791;-74
2022/08/15 10:18:38;;;;;;;;;6.50;6.50;;;;;;;;5170009;28;8831;-74
2022/08/15 10:21:35;;;;;;;;;4.25;4.25;;;;;;;;5173206;28;8935;-73
2022/08/15 10:24:08;;;;;;;;;7.50;7.50;;;;;;;;5206212;28;9492;-74
2022/08/15 10:26:39;;;;;;;;;5.25;5.25;;;;;;;;5204454;28;9605;-75
2022/08/15 10:29:22;;;;;;;;;6.25;6.25;;;;;;;;5167961;28;8791;-75
2022/08/15 10:31:54;;;;;;;;;7.50;7.25;;;;;;;;5169820;28;8822;-75
2022/08/15 10:34:35;;;;;;;;;5.75;5.75;;;;;;;;5184321;28;8819;-74
2022/08/15 10:37:09;;;;;;;;;5.00;5.00;;;;;;;;5178441;28;8812;-74
2022/08/15 10:40:00;;;;;;;;;3.00;3.00;;;;;;;;5206297;28;8999;-74
2022/08/15 10:42:48;;;;;;;;;11.50;11.50;;;;;;;;5205618;28;8804;-75
2022/08/15 10:45:19;;;;;;;;;2.25;2.25;;;;;;;;5204635;28;9554;-75
2022/08/15 10:47:56;;;;;;;;;4.00;4.00;;;;;;;;5187484;28;8954;-74
2022/08/15 10:50:41;;;;;;;;;15.50;15.50;;;;;;;;5187476;28;8804;-74
2022/08/15 10:53:49;;;;;;;;;4.75;4.75;;;;;;;;5205478;28;8919;-73
2022/08/15 10:56:25;;;;;;;;;68.40;56.80;;;;;;;;5181848;28;8807;-73
2022/08/15 10:59:02;;;;;;;;;5.00;5.00;;;;;;;;5185167;28;8787;-75
2022/08/15 11:01:35;;;;;;;;;2.00;2.00;;;;;;;;5188352;28;9678;-74
2022/08/15 11:04:09;;;;;;;;;4.75;4.75;;;;;;;;5204658;28;8797;-74
2022/08/15 11:06:58;;;;;;;;;4.00;4.00;;;;;;;;5204392;28;8797;-75
2022/08/15 11:09:51;;;;;;;;;4.50;4.00;;;;;;;;5205596;28;8993;-76
2022/08/15 11:12:23;;;;;;;;;4.50;4.50;;;;;;;;5203670;28;8942;-75
2022/08/15 11:15:13;;;;;;;;;4.50;4.50;;;;;;;;5204415;28;8805;-75
2022/08/15 11:17:46;;;;;;;;;3.50;3.50;;;;;;;;5206113;28;8868;-74
2022/08/15 11:20:21;;;;;;;;;3.00;3.00;;;;;;;;5205178;28;8816;-74
2022/08/15 11:22:59;;;;;;;;;11.50;11.50;;;;;;;;5187468;28;8801;-74
2022/08/15 11:25:34;;;;;;;;;5.00;5.00;;;;;;;;5188009;28;8817;-74
2022/08/15 11:28:22;;;;;;;;;3.75;3.75;;;;;;;;5204086;28;8764;-74
2022/08/15 11:30:59;;;;;;;;;4.00;4.00;;;;;;;;5203553;28;8919;-74
2022/08/15 11:33:57;;;;;;;;;8.00;8.00;;;;;;;;5187005;28;8926;-75
2022/08/15 11:36:54;;;;;;;;;17.00;17.00;;;;;;;;5195148;28;8814;-75
2022/08/15 11:39:27;;;;;;;;;20.00;19.00;;;;;;;;5184458;28;8913;-76
2022/08/15 11:42:03;;;;;;;;;5.50;5.50;;;;;;;;5184109;28;8934;-76
2022/08/15 11:44:42;;;;;;;;;3.00;3.00;;;;;;;;5151171;28;8889;-76
2022/08/15 11:47:23;;;;;;;;;4.00;4.00;;;;;;;;5183289;28;8807;-74
2022/08/15 11:50:01;;;;;;;;;2.25;2.25;;;;;;;;5166752;28;8842;-76
2022/08/15 11:52:37;;;;;;;;;5.00;5.00;;;;;;;;5183563;28;8806;-73
2022/08/15 11:55:19;;;;;;;;;4.00;4.00;;;;;;;;5183608;28;8787;-74
2022/08/15 11:58:01;;;;;;;;;2.00;2.00;;;;;;;;5185176;28;8812;-74
2022/08/15 12:00:57;;;;;;;;;2.75;2.75;;;;;;;;5204695;28;8828;-74
2022/08/15 12:03:30;;;;;;;;;31.75;30.00;;;;;;;;5174378;28;9539;-74
2022/08/15 12:06:14;;;;;;;;;7.75;7.75;;;;;;;;5207765;28;8812;-75
2022/08/15 12:08:52;;;;;;;;;2.50;2.50;;;;;;;;5207505;28;8789;-75
2022/08/15 12:11:43;;;;;;;;;5.50;5.50;;;;;;;;5207120;28;8808;-75
2022/08/15 12:14:17;;;;;;;;;3.00;3.00;;;;;;;;5206317;28;8812;-74
2022/08/15 12:17:14;;;;;;;;;2.00;2.00;;;;;;;;5197587;28;8792;-76
2022/08/15 12:19:51;;;;;;;;;3.00;3.00;;;;;;;;5169215;28;8981;-75
2022/08/15 12:22:29;;;;;;;;;6.00;6.00;;;;;;;;5203516;28;8804;-73
2022/08/15 12:25:00;;;;;;;;;3.75;3.75;;;;;;;;5187940;28;8795;-73
2022/08/15 12:27:32;;;;;;;;;210.67;192.33;;;;;;;;5214788;28;9598;-75
2022/08/15 12:30:05;;;;;;;;;16.50;16.50;;;;;;;;5210779;28;10238;-75
2022/08/15 12:32:54;;;;;;;;;10.00;10.00;;;;;;;;5227880;28;8802;-75
2022/08/15 12:35:25;;;;;;;;;8.00;8.00;;;;;;;;5227516;28;8789;-75
2022/08/15 12:37:56;;;;;;;;;4.25;4.25;;;;;;;;5227362;28;8785;-73
2022/08/15 12:40:28;;;;;;;;;4.75;4.75;;;;;;;;5213331;28;8836;-76
2022/08/15 12:42:59;;;;;;;;;5.75;5.75;;;;;;;;5208660;28;8784;-75
2022/08/15 12:45:31;;;;;;;;;4.25;4.25;;;;;;;;5208070;28;8819;-75
2022/08/15 12:48:03;;;;;;;;;4.00;4.00;;;;;;;;5207029;28;8935;-73
2022/08/15 12:50:54;;;;;;;;;3.00;3.00;;;;;;;;5222590;28;8784;-75
2022/08/15 12:53:24;;;;;;;;;2.75;2.50;;;;;;;;5216173;28;8792;-74
2022/08/15 12:55:55;;;;;;;;;4.25;4.25;;;;;;;;5214903;28;8793;-74
2022/08/15 12:58:26;;;;;;;;;2.75;2.75;;;;;;;;5213239;28;9549;-73
2022/08/15 13:01:16;;;;;;;;;4.00;4.00;;;;;;;;5209786;28;8797;-73
2022/08/15 13:03:47;;;;;;;;;7.00;7.00;;;;;;;;5207873;28;8777;-74
2022/08/15 13:06:28;;;;;;;;;7.00;7.00;;;;;;;;5189878;28;8792;-74
2022/08/15 13:08:59;;;;;;;;;4.00;4.00;;;;;;;;5189997;28;8788;-74
2022/08/15 13:11:31;;;;;;;;;39.00;34.80;;;;;;;;5206081;28;8800;-73
2022/08/15 13:14:03;;;;;;;;;23.50;23.50;;;;;;;;5189028;28;8870;-73
2022/08/15 13:16:35;;;;;;;;;17.75;17.75;;;;;;;;5206108;28;8797;-73
2022/08/15 13:23:34;;;;;;;;;17.00;17.00;;;;;;;;5204600;28;8994;-73
2022/08/15 13:25:51;;;;;;;;;5.00;5.00;;;;;;;;5186164;28;8817;-74
2022/08/15 13:28:22;;;;;;;;;27.00;27.00;;;;;;;;5185316;28;8917;-74
2022/08/15 13:30:53;;;;;;;;;6.75;6.75;;;;;;;;5194891;28;8886;-75
2022/08/15 13:33:24;;;;;;;;;4.25;4.25;;;;;;;;5185181;28;8973;-75
2022/08/15 13:35:56;;;;;;;;;3.33;3.33;;;;;;;;5183612;28;8825;-75
2022/08/15 13:38:28;;;;;;;;;46.00;38.20;;;;;;;;5169065;28;11525;-74
2022/08/15 13:40:59;;;;;;;;;45.80;39.00;;;;;;;;5170129;28;8855;-74
2022/08/15 13:43:30;;;;;;;;;4.00;4.00;;;;;;;;5203904;28;8811;-73
2022/08/15 13:46:01;;;;;;;;;4.33;4.33;;;;;;;;5204175;28;8792;-74
2022/08/15 13:48:37;;;;;;;;;2.00;2.00;;;;;;;;5187582;28;10920;-72
2022/08/15 13:51:20;;;;;;;;;2.25;2.25;;;;;;;;5202179;28;8816;-72
2022/08/15 13:53:54;;;;;;;;;4.00;4.00;;;;;;;;5196991;28;8843;-72
2022/08/15 13:56:27;;;;;;;;;3.00;3.00;;;;;;;;5189258;28;8788;-73
2022/08/15 13:58:58;;;;;;;;;2.50;2.50;;;;;;;;5200993;28;8800;-74
2022/08/15 14:01:29;;;;;;;;;11.50;11.00;;;;;;;;5188521;28;8844;-75
2022/08/15 14:04:11;;;;;;;;;4.25;4.25;;;;;;;;5188176;28;8895;-75
2022/08/15 14:06:42;;;;;;;;;3.75;3.75;;;;;;;;5185411;28;8873;-76
2022/08/15 14:09:13;;;;;;;;;6.00;6.00;;;;;;;;5152378;28;8791;-75
2022/08/15 14:11:44;;;;;;;;;6.67;6.67;;;;;;;;5184347;28;8831;-73
2022/08/15 14:14:33;;;;;;;;;19.00;18.75;;;;;;;;5199829;28;9891;-74
2022/08/15 14:17:10;;;;;;;;;4.25;4.25;;;;;;;;5196396;28;8835;-74
2022/08/15 14:19:41;;;;;;;;;8.25;8.00;;;;;;;;5184563;28;9554;-73
2022/08/15 14:22:14;;;;;;;;;4.75;4.75;;;;;;;;5181998;28;8803;-72
2022/08/15 14:24:45;;;;;;;;;5.50;5.50;;;;;;;;5205613;28;8831;-74
2022/08/15 14:27:16;;;;;;;;;6.00;6.00;;;;;;;;5172563;28;9452;-75
2022/08/15 14:29:47;;;;;;;;;7.75;7.75;;;;;;;;5205750;28;8862;-74
2022/08/15 14:32:19;;;;;;;;;5.25;5.25;;;;;;;;5204065;28;8812;-74
2022/08/15 14:34:50;;;;;;;;;54.40;45.40;;;;;;;;5205196;28;8855;-74
2022/08/15 14:37:21;;;;;;;;;13.00;13.00;;;;;;;;5198655;28;8816;-76
2022/08/15 14:39:52;;;;;;;;;10.00;10.00;;;;;;;;5188261;28;8867;-73
2022/08/15 14:42:23;;;;;;;;;46.00;38.80;;;;;;;;5185536;28;9506;-74
2022/08/15 14:44:54;;;;;;;;;5.50;5.50;;;;;;;;5184112;28;8908;-74
2022/08/15 14:47:45;;;;;;;;;4.25;4.25;;;;;;;;5185961;28;9536;-75
2022/08/15 14:50:18;;;;;;;;;1.00;1.00;;;;;;;;5151575;28;8795;-74
2022/08/15 14:52:49;;;;;;;;;13.75;13.75;;;;;;;;5184142;28;8811;-75
2022/08/15 14:55:21;;;;;;;;;4.50;4.50;;;;;;;;5176505;28;8809;-74
2022/08/15 14:57:52;;;;;;;;;2.75;2.75;;;;;;;;5188399;28;8784;-75
2022/08/15 15:00:23;;;;;;;;;3.50;3.50;;;;;;;;5205790;28;9644;-74
2022/08/15 15:02:55;;;;;;;;;1.25;1.25;;;;;;;;5204227;28;8812;-74
2022/08/15 15:05:27;;;;;;;;;6.33;5.67;;;;;;;;5187989;28;9499;-75
2022/08/15 15:07:58;;;;;;;;;6.00;6.00;;;;;;;;5187333;28;8802;-76
2022/08/15 15:10:30;;;;;;;;;5.00;5.00;;;;;;;;5204486;28;8816;-75
2022/08/15 15:13:05;;;;;;;;;6.00;6.00;;;;;;;;5205159;28;8793;-74
2022/08/15 15:15:55;;;;;;;;;4.00;4.00;;;;;;;;5184861;28;8819;-74
2022/08/15 15:18:26;;;;;;;;;4.50;4.50;;;;;;;;5183206;28;8826;-74
2022/08/15 15:20:57;;;;;;;;;3.75;3.75;;;;;;;;5182092;28;8842;-75
2022/08/15 15:23:29;;;;;;;;;3.00;3.00;;;;;;;;5167463;28;8782;-74
2022/08/15 15:26:00;;;;;;;;;3.75;3.75;;;;;;;;5182440;28;8808;-73
2022/08/15 15:28:32;;;;;;;;;3.75;3.75;;;;;;;;5187309;28;8960;-74
2022/08/15 15:31:03;;;;;;;;;5.50;5.50;;;;;;;;5170488;28;8798;-74
2022/08/15 15:33:33;;;;;;;;;6.00;6.00;;;;;;;;5186862;28;8784;-74
2022/08/15 15:36:07;;;;;;;;;8.50;8.50;;;;;;;;5195355;28;8814;-73
2022/08/15 15:38:38;;;;;;;;;6.00;6.00;;;;;;;;5199204;28;8792;-72
2022/08/15 15:41:29;;;;;;;;;4.00;4.00;;;;;;;;5198779;28;8839;-73
2022/08/15 15:44:20;;;;;;;;;6.50;6.50;;;;;;;;5184903;28;8791;-71
2022/08/15 15:46:57;;;;;;;;;7.00;7.00;;;;;;;;5183341;28;8803;-73
2022/08/15 15:49:30;;;;;;;;;8.00;8.00;;;;;;;;5169436;28;8808;-74
2022/08/15 15:52:21;;;;;;;;;6.50;6.50;;;;;;;;5191084;28;8799;-72
2022/08/15 15:54:54;;;;;;;;;7.00;7.00;;;;;;;;5184628;28;8941;-72
2022/08/15 15:57:26;;;;;;;;;9.00;9.00;;;;;;;;5193111;28;8820;-73